Terminal Aerodrome Forecast
Issued by NWS Omaha/Valley, NE

Home | Current Version | Previous Version | Text Only | Print | Product List | Glossary On
Versions: 1 2 3 4 5 6 7 8 9 10 11 12 13 14 15 16 17 18 19 20 21 22 23 24 25 26 27 28 29 30 31 32 33 34 35 36 37 38 39 40 41 42 43
000
FTUS43 KOAX 010529
TAFOFK
TAF
KOFK 010529Z 0106/0206 02006KT 1SM -SN BR OVC007
     FM010800 02014G22KT 1 1/2SM -SN OVC007
     FM011200 35024G35KT 1SM -SN BLSN OVC005
     FM012000 35015G25KT 6SM -SN BLSN OVC012
     FM012300 34015KT P6SM OVC025
     FM020300 32008KT P6SM BKN080=

USA.gov is the U.S. government's official web portal to all federal, state and local government web resources and services.